createdAt,value
2022-12-17T00:04:36.710Z,27.19
2022-12-17T00:09:48.588Z,26.16
2022-12-17T00:14:49.164Z,26.11
2022-12-17T00:19:56.323Z,26.57
2022-12-17T00:25:01.124Z,26.61
2022-12-17T00:30:08.162Z,26.07
2022-12-17T00:35:14.316Z,25.04
2022-12-17T00:40:20.538Z,24.63
2022-12-17T00:45:27.027Z,24.01
2022-12-17T00:50:33.622Z,23.37
2022-12-17T00:55:40.087Z,25.63
2022-12-17T01:00:46.371Z,23.92
2022-12-17T01:05:52.473Z,24.66
2022-12-17T01:10:58.734Z,24.11
2022-12-17T01:16:04.926Z,25.23
2022-12-17T01:21:11.290Z,27.15
2022-12-17T01:26:17.384Z,25.48
2022-12-17T01:31:23.842Z,23.81
2022-12-17T01:36:29.893Z,23.78
2022-12-17T01:41:36.110Z,23.84
2022-12-17T01:46:42.578Z,22.66
2022-12-17T01:51:48.803Z,22.70
2022-12-17T01:56:54.946Z,21.33
2022-12-17T02:02:01.493Z,21.16
2022-12-17T02:07:07.476Z,22.86
2022-12-17T02:12:13.728Z,21.08
2022-12-17T02:17:19.829Z,21.79
2022-12-17T02:22:26.387Z,21.72
2022-12-17T02:27:32.489Z,20.60
2022-12-17T02:32:38.736Z,24.33
2022-12-17T02:37:44.840Z,23.74
2022-12-17T02:42:51.138Z,23.44
2022-12-17T02:47:57.305Z,23.03
2022-12-17T02:53:04.019Z,23.31
2022-12-17T02:58:10.155Z,21.81
2022-12-17T03:03:16.857Z,21.99
2022-12-17T03:08:23.270Z,22.87
2022-12-17T03:13:29.631Z,23.40
2022-12-17T03:18:36.586Z,24.30
2022-12-17T03:23:42.827Z,22.80
2022-12-17T03:28:48.883Z,22.97
2022-12-17T03:33:55.223Z,23.78
2022-12-17T03:39:01.359Z,22.78
2022-12-17T03:44:07.995Z,21.82
2022-12-17T03:49:14.117Z,23.91
2022-12-17T03:54:20.751Z,26.31
2022-12-17T03:59:26.885Z,23.96
2022-12-17T04:04:33.189Z,27.12
2022-12-17T04:09:39.347Z,27.49
2022-12-17T04:14:45.971Z,28.85
2022-12-17T04:19:52.093Z,26.51
2022-12-17T04:24:58.751Z,26.89
2022-12-17T04:30:04.888Z,28.26
2022-12-17T04:35:11.085Z,29.21
2022-12-17T04:40:17.545Z,25.48
2022-12-17T04:45:23.753Z,29.15
2022-12-17T04:50:29.898Z,27.00
2022-12-17T04:55:36.223Z,29.79
2022-12-17T05:00:42.677Z,30.63
2022-12-17T05:05:48.858Z,27.85
2022-12-17T05:10:55.291Z,30.41
2022-12-17T05:16:02.015Z,29.49
2022-12-17T05:21:08.044Z,31.60
2022-12-17T05:26:14.357Z,32.98
2022-12-17T05:31:20.492Z,33.48
2022-12-17T05:36:26.754Z,37.60
2022-12-17T05:41:32.946Z,33.47
2022-12-17T05:46:39.571Z,33.96
2022-12-17T05:51:45.646Z,34.16
2022-12-17T05:56:51.864Z,35.88
2022-12-17T06:01:58.088Z,36.39
2022-12-17T06:07:04.221Z,37.63
2022-12-17T06:12:10.387Z,39.53
2022-12-17T06:17:16.924Z,41.85
2022-12-17T06:22:23.018Z,38.83
2022-12-17T06:27:29.286Z,39.05
2022-12-17T06:32:35.461Z,41.71
2022-12-17T06:37:42.595Z,42.64
2022-12-17T06:42:48.761Z,40.36
2022-12-17T06:47:54.960Z,38.48
2022-12-17T06:53:01.033Z,40.07
2022-12-17T06:58:07.318Z,41.21
2022-12-17T07:03:14.924Z,37.25
2022-12-17T07:08:19.189Z,42.23
2022-12-17T07:13:25.271Z,41.94
2022-12-17T07:18:31.411Z,40.25
2022-12-17T07:23:37.980Z,44.42
2022-12-17T07:28:43.668Z,45.47
2022-12-17T07:33:49.865Z,43.94
2022-12-17T07:38:56.064Z,42.52
2022-12-17T07:44:02.503Z,41.93
2022-12-17T07:49:09.078Z,38.17
2022-12-17T07:54:14.789Z,41.46
2022-12-17T07:59:21.029Z,37.31
2022-12-17T08:04:27.122Z,37.90
2022-12-17T08:09:33.340Z,35.03
2022-12-17T08:14:39.849Z,36.64
2022-12-17T08:19:46.051Z,33.11
2022-12-17T08:24:52.181Z,34.28
2022-12-17T08:29:58.412Z,31.87
2022-12-17T08:35:04.531Z,34.68
2022-12-17T08:40:10.783Z,34.58
2022-12-17T08:45:17.726Z,32.51
2022-12-17T08:50:24.005Z,32.30
2022-12-17T08:55:30.090Z,33.34
2022-12-17T09:00:36.260Z,36.62
2022-12-17T09:05:42.813Z,36.85
2022-12-17T09:10:49.182Z,37.25
2022-12-17T09:15:55.695Z,36.38
2022-12-17T09:21:01.889Z,34.12
2022-12-17T09:26:07.991Z,34.15
2022-12-17T09:31:14.355Z,34.96
2022-12-17T09:36:20.495Z,41.14
2022-12-17T09:41:27.131Z,34.36
2022-12-17T09:46:33.324Z,32.52
2022-12-17T09:51:40.194Z,33.77
2022-12-17T09:56:46.683Z,33.11
2022-12-17T10:01:52.979Z,33.37
2022-12-17T10:06:58.984Z,31.95
2022-12-17T10:12:05.317Z,37.29
2022-12-17T10:17:12.043Z,32.15
2022-12-17T10:22:17.180Z,34.37
2022-12-17T10:27:23.312Z,34.77
2022-12-17T10:32:29.576Z,32.05
2022-12-17T10:37:35.782Z,33.68
2022-12-17T10:42:42.352Z,33.31
2022-12-17T10:47:48.552Z,34.01
2022-12-17T10:52:54.876Z,31.72
2022-12-17T10:58:01.033Z,32.25
2022-12-17T11:03:07.621Z,31.51
2022-12-17T11:08:13.610Z,33.34
2022-12-17T11:13:19.868Z,30.35
2022-12-17T11:18:26.021Z,31.56
2022-12-17T11:23:32.584Z,29.28
2022-12-17T11:28:38.673Z,29.81
2022-12-17T11:33:44.845Z,30.72
2022-12-17T11:38:51.867Z,31.78
2022-12-17T11:43:58.453Z,31.94
2022-12-17T11:49:04.594Z,37.15
2022-12-17T11:54:10.771Z,32.42
2022-12-17T11:59:16.954Z,32.81
2022-12-17T12:04:23.659Z,36.13
2022-12-17T12:09:29.705Z,33.72
2022-12-17T12:14:35.878Z,35.35
2022-12-17T12:19:41.946Z,38.87
2022-12-17T12:24:48.639Z,38.13
2022-12-17T12:29:54.760Z,36.95
2022-12-17T12:35:01.090Z,39.90
2022-12-17T12:40:07.540Z,41.79
2022-12-17T12:45:13.870Z,43.96
2022-12-17T12:50:20.001Z,44.39
2022-12-17T12:55:26.186Z,46.56
2022-12-17T13:00:32.396Z,51.70
2022-12-17T13:05:38.566Z,49.39
2022-12-17T13:10:44.716Z,54.90
2022-12-17T13:15:51.277Z,51.51
2022-12-17T13:20:57.496Z,51.08
2022-12-17T13:26:03.653Z,54.80
2022-12-17T13:31:09.727Z,54.65
2022-12-17T13:36:16.310Z,55.61
2022-12-17T13:41:22.383Z,53.43
2022-12-17T13:46:29.140Z,53.89
2022-12-17T13:51:35.205Z,55.41
2022-12-17T13:56:41.331Z,53.96
2022-12-17T14:01:47.586Z,56.89
2022-12-17T14:06:53.787Z,52.45
2022-12-17T14:11:59.992Z,56.34
2022-12-17T14:17:06.242Z,57.05
2022-12-17T14:22:12.308Z,56.85
2022-12-17T14:27:18.588Z,57.27
2022-12-17T14:32:24.792Z,51.03
2022-12-17T14:37:30.895Z,54.42
2022-12-17T14:42:37.020Z,51.16
2022-12-17T14:47:43.138Z,56.63
2022-12-17T14:52:49.257Z,52.80
2022-12-17T14:57:55.569Z,51.71
2022-12-17T15:03:02.163Z,56.51
2022-12-17T15:08:08.564Z,56.12
2022-12-17T15:13:16.706Z,51.48
2022-12-17T15:18:24.642Z,52.90
2022-12-17T15:23:30.763Z,47.17
2022-12-17T15:28:37.441Z,49.19
2022-12-17T15:33:42.721Z,53.54
2022-12-17T15:38:48.926Z,50.98
2022-12-17T15:43:55.110Z,53.15
2022-12-17T15:49:01.328Z,51.26
2022-12-17T15:54:07.446Z,51.74
2022-12-17T15:59:13.939Z,54.56
2022-12-17T16:04:24.919Z,50.27
2022-12-17T16:09:25.941Z,51.01
2022-12-17T16:14:32.096Z,46.51
2022-12-17T16:19:38.705Z,51.90
2022-12-17T16:24:44.769Z,48.11
2022-12-17T16:29:50.926Z,51.35
2022-12-17T16:34:57.091Z,52.51
2022-12-17T16:40:03.081Z,51.29
2022-12-17T16:45:09.150Z,51.00
2022-12-17T16:50:15.803Z,47.66
2022-12-17T16:55:21.951Z,43.77
2022-12-17T17:00:28.512Z,46.93
2022-12-17T17:05:34.619Z,49.53
2022-12-17T17:10:40.811Z,48.86
2022-12-17T17:15:47.254Z,46.36
2022-12-17T17:20:53.788Z,44.79
2022-12-17T17:25:59.876Z,47.33
2022-12-17T17:31:06.059Z,49.08
2022-12-17T17:36:12.455Z,48.50
2022-12-17T17:41:18.653Z,51.14
2022-12-17T17:47:37.396Z,59.07
2022-12-17T17:52:43.683Z,52.03
2022-12-17T17:57:49.835Z,48.12
2022-12-17T18:02:56.340Z,46.56
2022-12-17T18:08:02.287Z,46.48
2022-12-17T18:13:08.485Z,45.90
2022-12-17T18:18:15.016Z,43.52
2022-12-17T18:23:21.274Z,46.61
2022-12-17T18:28:27.354Z,42.31
2022-12-17T18:33:33.968Z,42.55
2022-12-17T18:38:40.415Z,39.69
2022-12-17T18:43:46.314Z,40.59
2022-12-17T18:48:52.423Z,37.54
2022-12-17T18:53:58.779Z,39.06
2022-12-17T18:59:04.927Z,38.88
2022-12-17T19:04:11.557Z,44.34
2022-12-17T19:09:18.094Z,41.73
2022-12-17T19:14:24.418Z,37.26
2022-12-17T19:19:30.497Z,42.85
2022-12-17T19:24:36.655Z,41.33
2022-12-17T19:29:47.657Z,50.15
2022-12-17T19:34:48.427Z,43.05
2022-12-17T19:39:55.015Z,44.48
2022-12-17T19:45:01.203Z,40.20
2022-12-17T19:50:07.280Z,40.40
2022-12-17T19:55:13.950Z,39.36
2022-12-17T20:00:20.108Z,37.16
2022-12-17T20:05:26.400Z,37.60
2022-12-17T20:10:32.465Z,41.89
2022-12-17T20:15:38.604Z,38.86
2022-12-17T20:20:44.752Z,43.27
2022-12-17T20:25:50.979Z,41.20
2022-12-17T20:30:58.111Z,41.26
2022-12-17T20:36:02.755Z,38.04
2022-12-17T20:41:08.932Z,37.33
2022-12-17T20:46:15.235Z,37.03
2022-12-17T20:51:21.750Z,35.03
2022-12-17T20:56:28.002Z,38.23
2022-12-17T21:01:34.387Z,36.95
2022-12-17T21:06:40.379Z,39.46
2022-12-17T21:11:46.597Z,39.70
2022-12-17T21:16:53.007Z,43.47
2022-12-17T21:21:58.984Z,39.69
2022-12-17T21:27:09.555Z,40.12
2022-12-17T21:32:10.892Z,40.68
2022-12-17T21:37:17.429Z,38.46
2022-12-17T21:42:23.497Z,39.77
2022-12-17T21:47:29.689Z,41.72
2022-12-17T21:52:36.140Z,42.53
2022-12-17T21:57:42.307Z,41.89
2022-12-17T22:02:48.575Z,43.71
2022-12-17T22:07:54.595Z,43.96
2022-12-17T22:13:00.746Z,43.36
2022-12-17T22:18:06.935Z,46.97
2022-12-17T22:23:13.063Z,44.54
2022-12-17T22:28:19.214Z,40.58
2022-12-17T22:33:34.184Z,43.79
2022-12-17T22:41:12.056Z,44.10
2022-12-17T22:44:38.737Z,45.43
2022-12-17T22:48:42.482Z,43.53
2022-12-17T22:53:52.762Z,44.59
2022-12-17T22:58:54.402Z,42.55
2022-12-17T23:04:00.615Z,40.55
2022-12-17T23:09:07.006Z,37.85
2022-12-17T23:14:13.102Z,36.32
2022-12-17T23:19:19.433Z,38.93
2022-12-17T23:24:25.530Z,40.11
2022-12-17T23:29:31.816Z,39.21
2022-12-17T23:34:37.933Z,39.02
2022-12-17T23:39:44.475Z,40.39
2022-12-17T23:44:50.635Z,39.89
2022-12-17T23:49:56.969Z,44.15
2022-12-17T23:55:03.035Z,42.38
